aviador You're here:

PAFS Decoded Metar

NIKOLAI in AK, USA
Report Time2018-06-25 11:01:00
UTC Time2018-06-25 11:58:04
Flight Rules vfr VFR
WindCalm
Visibility9999 m
Phenomena:N/A
Clouds:Overcast 080 Hf
Expected CloudBase > 1,200 ft AGL from Temp-Dew spread
Ceiling8,000 ft
Temp12°C (ISA -2)
Dew Point09°C (82% RH)
AAT11.8°C
QNH1011 hPa
Density Alt377 ft
Elevation413 ft
Report Wrong Elevation
Raw Report
PAFS 251101Z AUTO 00000KT 10SM OVC080 12/09 A2985=

Extra information for PAFS:More info

Metar Taf Metar & Taf Last 4 Metars F.Rules Stats Wind Profile Meteogram Temp Stats Airport Information Weather charts Add Link Nearby VenuesMetar ALERT Operation Metar Decoded Social comments

AIRNAV info for PAFS